sensor_id;sensor_type;location;lat;lon;timestamp;P1;durP1;ratioP1;P2;durP2;ratioP2
41434;SDS011;27177;22.262;114.192;2022-12-18T00:02:12;6.72;;;3.70;;
41434;SDS011;27177;22.262;114.192;2022-12-18T00:04:39;7.35;;;3.35;;
41434;SDS011;27177;22.262;114.192;2022-12-18T00:07:05;7.40;;;2.90;;
41434;SDS011;27177;22.262;114.192;2022-12-18T00:09:32;8.07;;;2.75;;
41434;SDS011;27177;22.262;114.192;2022-12-18T00:11:59;9.13;;;3.58;;
41434;SDS011;27177;22.262;114.192;2022-12-18T00:14:26;8.73;;;3.28;;
41434;SDS011;27177;22.262;114.192;2022-12-18T00:16:53;8.63;;;3.15;;
41434;SDS011;27177;22.262;114.192;2022-12-18T00:19:19;9.85;;;3.85;;
41434;SDS011;27177;22.262;114.192;2022-12-18T00:21:46;7.95;;;3.25;;
41434;SDS011;27177;22.262;114.192;2022-12-18T00:24:13;4.68;;;2.92;;
41434;SDS011;27177;22.262;114.192;2022-12-18T00:26:40;7.13;;;3.65;;
41434;SDS011;27177;22.262;114.192;2022-12-18T00:29:09;6.78;;;3.35;;
41434;SDS011;27177;22.262;114.192;2022-12-18T00:34:05;7.55;;;2.70;;
41434;SDS011;27177;22.262;114.192;2022-12-18T00:36:33;7.57;;;3.08;;
41434;SDS011;27177;22.262;114.192;2022-12-18T00:39:01;10.07;;;2.90;;
41434;SDS011;27177;22.262;114.192;2022-12-18T00:41:29;6.78;;;2.45;;
41434;SDS011;27177;22.262;114.192;2022-12-18T00:44:15;4.97;;;2.90;;
41434;SDS011;27177;22.262;114.192;2022-12-18T00:46:43;8.32;;;2.55;;
41434;SDS011;27177;22.262;114.192;2022-12-18T00:49:13;8.27;;;2.83;;
41434;SDS011;27177;22.262;114.192;2022-12-18T00:51:42;7.25;;;2.40;;
41434;SDS011;27177;22.262;114.192;2022-12-18T00:54:09;8.15;;;2.75;;
41434;SDS011;27177;22.262;114.192;2022-12-18T00:56:37;4.03;;;2.67;;
41434;SDS011;27177;22.262;114.192;2022-12-18T00:59:04;4.93;;;2.47;;
41434;SDS011;27177;22.262;114.192;2022-12-18T01:01:32;5.55;;;2.20;;
41434;SDS011;27177;22.262;114.192;2022-12-18T01:03:59;5.38;;;2.60;;
41434;SDS011;27177;22.262;114.192;2022-12-18T01:06:27;8.18;;;2.78;;
41434;SDS011;27177;22.262;114.192;2022-12-18T01:08:55;8.38;;;2.92;;
41434;SDS011;27177;22.262;114.192;2022-12-18T01:11:22;7.50;;;2.97;;
41434;SDS011;27177;22.262;114.192;2022-12-18T01:13:49;12.15;;;3.90;;
41434;SDS011;27177;22.262;114.192;2022-12-18T01:16:18;8.50;;;2.45;;
41434;SDS011;27177;22.262;114.192;2022-12-18T01:18:45;5.53;;;2.70;;
41434;SDS011;27177;22.262;114.192;2022-12-18T01:21:13;8.13;;;3.13;;
41434;SDS011;27177;22.262;114.192;2022-12-18T01:23:45;4.55;;;2.45;;
41434;SDS011;27177;22.262;114.192;2022-12-18T01:26:15;7.82;;;2.45;;
41434;SDS011;27177;22.262;114.192;2022-12-18T01:28:42;7.30;;;2.58;;
41434;SDS011;27177;22.262;114.192;2022-12-18T01:31:13;3.92;;;2.10;;
41434;SDS011;27177;22.262;114.192;2022-12-18T01:33:42;7.60;;;2.40;;
41434;SDS011;27177;22.262;114.192;2022-12-18T01:36:14;5.32;;;2.05;;
41434;SDS011;27177;22.262;114.192;2022-12-18T01:38:43;6.70;;;2.60;;
41434;SDS011;27177;22.262;114.192;2022-12-18T01:41:10;10.15;;;2.40;;
41434;SDS011;27177;22.262;114.192;2022-12-18T01:43:44;5.00;;;2.70;;
41434;SDS011;27177;22.262;114.192;2022-12-18T01:48:48;4.32;;;2.42;;
41434;SDS011;27177;22.262;114.192;2022-12-18T01:51:20;4.57;;;2.22;;
41434;SDS011;27177;22.262;114.192;2022-12-18T01:53:48;5.75;;;2.35;;
41434;SDS011;27177;22.262;114.192;2022-12-18T01:56:17;6.80;;;2.70;;
41434;SDS011;27177;22.262;114.192;2022-12-18T02:01:26;4.85;;;2.50;;
41434;SDS011;27177;22.262;114.192;2022-12-18T02:03:54;6.85;;;2.50;;
41434;SDS011;27177;22.262;114.192;2022-12-18T02:09:08;4.53;;;2.13;;
41434;SDS011;27177;22.262;114.192;2022-12-18T02:11:49;4.80;;;2.45;;
41434;SDS011;27177;22.262;114.192;2022-12-18T02:14:36;8.55;;;2.35;;
41434;SDS011;27177;22.262;114.192;2022-12-18T02:17:11;3.03;;;2.28;;
41434;SDS011;27177;22.262;114.192;2022-12-18T02:27:53;4.70;;;2.50;;
41434;SDS011;27177;22.262;114.192;2022-12-18T02:30:21;5.38;;;2.67;;
41434;SDS011;27177;22.262;114.192;2022-12-18T02:32:50;5.18;;;2.95;;
41434;SDS011;27177;22.262;114.192;2022-12-18T02:35:28;5.68;;;3.17;;
41434;SDS011;27177;22.262;114.192;2022-12-18T02:37:56;9.15;;;3.42;;
41434;SDS011;27177;22.262;114.192;2022-12-18T02:40:24;10.27;;;3.22;;
41434;SDS011;27177;22.262;114.192;2022-12-18T02:42:53;6.22;;;2.85;;
41434;SDS011;27177;22.262;114.192;2022-12-18T02:45:20;4.55;;;2.30;;
41434;SDS011;27177;22.262;114.192;2022-12-18T02:47:47;6.18;;;2.50;;
41434;SDS011;27177;22.262;114.192;2022-12-18T02:57:58;5.60;;;2.17;;
41434;SDS011;27177;22.262;114.192;2022-12-18T03:00:41;7.97;;;2.55;;
41434;SDS011;27177;22.262;114.192;2022-12-18T03:08:32;4.32;;;2.38;;
41434;SDS011;27177;22.262;114.192;2022-12-18T03:11:07;5.13;;;2.47;;
41434;SDS011;27177;22.262;114.192;2022-12-18T03:13:37;7.20;;;2.20;;
41434;SDS011;27177;22.262;114.192;2022-12-18T03:16:06;6.00;;;2.30;;
41434;SDS011;27177;22.262;114.192;2022-12-18T03:18:45;6.07;;;2.88;;
41434;SDS011;27177;22.262;114.192;2022-12-18T03:21:19;6.20;;;2.43;;
41434;SDS011;27177;22.262;114.192;2022-12-18T03:23:51;4.07;;;2.17;;
41434;SDS011;27177;22.262;114.192;2022-12-18T03:26:23;7.32;;;2.50;;
41434;SDS011;27177;22.262;114.192;2022-12-18T03:28:59;5.90;;;2.55;;
41434;SDS011;27177;22.262;114.192;2022-12-18T03:31:30;7.30;;;2.60;;
41434;SDS011;27177;22.262;114.192;2022-12-18T03:33:58;8.88;;;3.05;;
41434;SDS011;27177;22.262;114.192;2022-12-18T03:36:31;9.35;;;2.60;;
41434;SDS011;27177;22.262;114.192;2022-12-18T03:38:58;7.60;;;2.80;;
41434;SDS011;27177;22.262;114.192;2022-12-18T03:49:33;6.28;;;2.45;;
41434;SDS011;27177;22.262;114.192;2022-12-18T03:52:12;6.68;;;2.60;;
41434;SDS011;27177;22.262;114.192;2022-12-18T03:54:51;5.38;;;2.30;;
41434;SDS011;27177;22.262;114.192;2022-12-18T03:57:22;14.55;;;3.25;;
41434;SDS011;27177;22.262;114.192;2022-12-18T03:59:54;6.80;;;2.80;;
41434;SDS011;27177;22.262;114.192;2022-12-18T04:02:27;11.70;;;2.90;;
41434;SDS011;27177;22.262;114.192;2022-12-18T04:04:56;9.25;;;2.95;;
41434;SDS011;27177;22.262;114.192;2022-12-18T04:07:26;10.00;;;3.10;;
41434;SDS011;27177;22.262;114.192;2022-12-18T04:09:53;7.13;;;2.25;;
41434;SDS011;27177;22.262;114.192;2022-12-18T04:12:26;4.90;;;2.60;;
41434;SDS011;27177;22.262;114.192;2022-12-18T04:14:54;5.30;;;2.53;;
41434;SDS011;27177;22.262;114.192;2022-12-18T04:17:21;12.25;;;2.70;;
41434;SDS011;27177;22.262;114.192;2022-12-18T04:19:49;5.53;;;2.50;;
41434;SDS011;27177;22.262;114.192;2022-12-18T04:22:16;5.65;;;2.10;;
41434;SDS011;27177;22.262;114.192;2022-12-18T04:24:43;6.03;;;2.75;;
41434;SDS011;27177;22.262;114.192;2022-12-18T04:27:09;6.03;;;2.67;;
41434;SDS011;27177;22.262;114.192;2022-12-18T04:29:39;6.00;;;2.38;;
41434;SDS011;27177;22.262;114.192;2022-12-18T04:32:06;4.63;;;2.35;;
41434;SDS011;27177;22.262;114.192;2022-12-18T04:34:33;6.90;;;2.53;;
41434;SDS011;27177;22.262;114.192;2022-12-18T04:37:00;4.03;;;2.35;;
41434;SDS011;27177;22.262;114.192;2022-12-18T04:39:27;5.88;;;2.50;;
41434;SDS011;27177;22.262;114.192;2022-12-18T04:41:54;8.75;;;2.70;;
41434;SDS011;27177;22.262;114.192;2022-12-18T04:44:20;7.97;;;2.55;;
41434;SDS011;27177;22.262;114.192;2022-12-18T04:46:47;5.05;;;2.10;;
41434;SDS011;27177;22.262;114.192;2022-12-18T04:49:14;4.53;;;2.03;;
41434;SDS011;27177;22.262;114.192;2022-12-18T04:51:41;8.52;;;2.53;;
41434;SDS011;27177;22.262;114.192;2022-12-18T04:54:08;6.47;;;2.25;;
41434;SDS011;27177;22.262;114.192;2022-12-18T04:56:34;6.03;;;2.35;;
41434;SDS011;27177;22.262;114.192;2022-12-18T04:59:01;8.65;;;2.85;;
41434;SDS011;27177;22.262;114.192;2022-12-18T05:01:28;8.90;;;2.67;;
41434;SDS011;27177;22.262;114.192;2022-12-18T05:03:55;6.88;;;2.10;;
41434;SDS011;27177;22.262;114.192;2022-12-18T05:06:21;4.90;;;2.15;;
41434;SDS011;27177;22.262;114.192;2022-12-18T05:08:48;9.88;;;2.83;;
41434;SDS011;27177;22.262;114.192;2022-12-18T05:11:15;7.43;;;2.65;;
41434;SDS011;27177;22.262;114.192;2022-12-18T05:13:42;4.75;;;2.97;;
41434;SDS011;27177;22.262;114.192;2022-12-18T05:16:10;5.45;;;2.50;;
41434;SDS011;27177;22.262;114.192;2022-12-18T05:18:39;6.88;;;2.50;;
41434;SDS011;27177;22.262;114.192;2022-12-18T05:21:06;7.32;;;2.63;;
41434;SDS011;27177;22.262;114.192;2022-12-18T05:23:33;8.80;;;2.70;;
41434;SDS011;27177;22.262;114.192;2022-12-18T05:26:01;7.22;;;2.30;;
41434;SDS011;27177;22.262;114.192;2022-12-18T05:28:30;5.32;;;2.67;;
41434;SDS011;27177;22.262;114.192;2022-12-18T05:30:59;10.05;;;2.60;;
41434;SDS011;27177;22.262;114.192;2022-12-18T05:33:30;12.10;;;3.00;;
41434;SDS011;27177;22.262;114.192;2022-12-18T05:35:59;4.53;;;2.45;;
41434;SDS011;27177;22.262;114.192;2022-12-18T05:38:27;8.52;;;2.75;;
41434;SDS011;27177;22.262;114.192;2022-12-18T05:40:55;5.65;;;2.60;;
41434;SDS011;27177;22.262;114.192;2022-12-18T05:43:22;5.47;;;2.25;;
41434;SDS011;27177;22.262;114.192;2022-12-18T05:45:50;9.50;;;3.03;;
41434;SDS011;27177;22.262;114.192;2022-12-18T05:48:18;6.40;;;2.60;;
41434;SDS011;27177;22.262;114.192;2022-12-18T05:50:46;8.65;;;2.95;;
41434;SDS011;27177;22.262;114.192;2022-12-18T05:53:15;5.70;;;2.60;;
41434;SDS011;27177;22.262;114.192;2022-12-18T05:55:43;5.88;;;2.13;;
41434;SDS011;27177;22.262;114.192;2022-12-18T05:58:11;6.00;;;2.53;;
41434;SDS011;27177;22.262;114.192;2022-12-18T06:00:40;4.95;;;2.65;;
41434;SDS011;27177;22.262;114.192;2022-12-18T06:03:10;7.63;;;2.78;;
41434;SDS011;27177;22.262;114.192;2022-12-18T06:05:39;5.40;;;2.28;;
41434;SDS011;27177;22.262;114.192;2022-12-18T06:08:08;7.68;;;3.15;;
41434;SDS011;27177;22.262;114.192;2022-12-18T06:10:34;6.40;;;2.53;;
41434;SDS011;27177;22.262;114.192;2022-12-18T06:13:03;6.18;;;2.20;;
41434;SDS011;27177;22.262;114.192;2022-12-18T06:15:30;8.35;;;2.80;;
41434;SDS011;27177;22.262;114.192;2022-12-18T06:17:57;6.93;;;2.33;;
41434;SDS011;27177;22.262;114.192;2022-12-18T06:20:25;5.65;;;2.80;;
41434;SDS011;27177;22.262;114.192;2022-12-18T06:22:52;3.97;;;2.35;;
41434;SDS011;27177;22.262;114.192;2022-12-18T06:25:19;5.18;;;2.70;;
41434;SDS011;27177;22.262;114.192;2022-12-18T06:27:47;9.07;;;2.35;;
41434;SDS011;27177;22.262;114.192;2022-12-18T06:30:14;8.52;;;2.75;;
41434;SDS011;27177;22.262;114.192;2022-12-18T06:32:41;7.28;;;2.50;;
41434;SDS011;27177;22.262;114.192;2022-12-18T06:35:08;4.88;;;3.00;;
41434;SDS011;27177;22.262;114.192;2022-12-18T06:37:34;8.55;;;2.47;;
41434;SDS011;27177;22.262;114.192;2022-12-18T06:40:01;4.53;;;2.40;;
41434;SDS011;27177;22.262;114.192;2022-12-18T06:42:28;5.90;;;2.42;;
41434;SDS011;27177;22.262;114.192;2022-12-18T06:44:55;6.43;;;2.92;;
41434;SDS011;27177;22.262;114.192;2022-12-18T06:47:22;6.88;;;2.50;;
41434;SDS011;27177;22.262;114.192;2022-12-18T06:49:49;8.70;;;2.60;;
41434;SDS011;27177;22.262;114.192;2022-12-18T06:52:15;4.88;;;2.53;;
41434;SDS011;27177;22.262;114.192;2022-12-18T06:54:42;5.75;;;1.98;;
41434;SDS011;27177;22.262;114.192;2022-12-18T06:57:09;5.55;;;2.33;;
41434;SDS011;27177;22.262;114.192;2022-12-18T06:59:36;7.80;;;2.38;;
41434;SDS011;27177;22.262;114.192;2022-12-18T07:02:03;7.05;;;2.45;;
41434;SDS011;27177;22.262;114.192;2022-12-18T07:04:30;4.72;;;2.35;;
41434;SDS011;27177;22.262;114.192;2022-12-18T07:06:56;6.60;;;2.70;;
41434;SDS011;27177;22.262;114.192;2022-12-18T07:09:23;5.20;;;2.53;;
41434;SDS011;27177;22.262;114.192;2022-12-18T07:11:50;7.20;;;2.70;;
41434;SDS011;27177;22.262;114.192;2022-12-18T07:14:17;6.68;;;2.40;;
41434;SDS011;27177;22.262;114.192;2022-12-18T07:16:44;8.02;;;2.78;;
41434;SDS011;27177;22.262;114.192;2022-12-18T07:19:10;9.80;;;2.85;;
41434;SDS011;27177;22.262;114.192;2022-12-18T07:21:37;7.03;;;3.03;;
41434;SDS011;27177;22.262;114.192;2022-12-18T07:24:04;5.22;;;2.22;;
41434;SDS011;27177;22.262;114.192;2022-12-18T07:26:31;7.65;;;2.53;;
41434;SDS011;27177;22.262;114.192;2022-12-18T07:28:58;7.43;;;2.35;;
41434;SDS011;27177;22.262;114.192;2022-12-18T07:31:25;7.15;;;2.60;;
41434;SDS011;27177;22.262;114.192;2022-12-18T07:33:52;7.70;;;2.90;;
41434;SDS011;27177;22.262;114.192;2022-12-18T07:36:19;6.43;;;2.33;;
41434;SDS011;27177;22.262;114.192;2022-12-18T07:38:46;5.03;;;2.10;;
41434;SDS011;27177;22.262;114.192;2022-12-18T07:41:13;4.55;;;2.33;;
41434;SDS011;27177;22.262;114.192;2022-12-18T07:43:40;5.78;;;2.58;;
41434;SDS011;27177;22.262;114.192;2022-12-18T07:46:08;7.18;;;2.30;;
41434;SDS011;27177;22.262;114.192;2022-12-18T07:48:35;7.93;;;2.65;;
41434;SDS011;27177;22.262;114.192;2022-12-18T07:51:03;5.20;;;2.00;;
41434;SDS011;27177;22.262;114.192;2022-12-18T07:53:31;5.88;;;2.30;;
41434;SDS011;27177;22.262;114.192;2022-12-18T07:56:01;4.15;;;2.40;;
41434;SDS011;27177;22.262;114.192;2022-12-18T07:58:30;3.73;;;2.20;;
41434;SDS011;27177;22.262;114.192;2022-12-18T08:01:05;6.32;;;2.90;;
41434;SDS011;27177;22.262;114.192;2022-12-18T08:03:33;8.23;;;2.30;;
41434;SDS011;27177;22.262;114.192;2022-12-18T08:06:01;5.32;;;2.55;;
41434;SDS011;27177;22.262;114.192;2022-12-18T08:08:29;3.55;;;2.00;;
41434;SDS011;27177;22.262;114.192;2022-12-18T08:10:57;6.60;;;2.50;;
41434;SDS011;27177;22.262;114.192;2022-12-18T08:13:24;7.28;;;2.30;;
41434;SDS011;27177;22.262;114.192;2022-12-18T08:15:58;4.38;;;2.20;;
41434;SDS011;27177;22.262;114.192;2022-12-18T08:18:26;3.40;;;1.98;;
41434;SDS011;27177;22.262;114.192;2022-12-18T08:20:54;4.35;;;2.03;;
41434;SDS011;27177;22.262;114.192;2022-12-18T08:23:21;6.90;;;2.50;;
41434;SDS011;27177;22.262;114.192;2022-12-18T08:25:48;8.60;;;2.60;;
41434;SDS011;27177;22.262;114.192;2022-12-18T08:28:16;6.00;;;2.45;;
41434;SDS011;27177;22.262;114.192;2022-12-18T08:30:43;6.05;;;2.33;;
41434;SDS011;27177;22.262;114.192;2022-12-18T08:33:09;6.07;;;2.25;;
41434;SDS011;27177;22.262;114.192;2022-12-18T08:35:36;6.43;;;2.10;;
41434;SDS011;27177;22.262;114.192;2022-12-18T08:38:03;5.32;;;2.70;;
41434;SDS011;27177;22.262;114.192;2022-12-18T08:40:30;4.70;;;2.33;;
41434;SDS011;27177;22.262;114.192;2022-12-18T08:42:56;4.68;;;2.33;;
41434;SDS011;27177;22.262;114.192;2022-12-18T08:45:42;8.32;;;2.30;;
41434;SDS011;27177;22.262;114.192;2022-12-18T08:48:09;5.88;;;2.30;;
41434;SDS011;27177;22.262;114.192;2022-12-18T08:50:35;6.93;;;2.55;;
41434;SDS011;27177;22.262;114.192;2022-12-18T08:53:02;5.35;;;2.42;;
41434;SDS011;27177;22.262;114.192;2022-12-18T08:55:29;3.88;;;2.20;;
41434;SDS011;27177;22.262;114.192;2022-12-18T08:57:56;5.15;;;2.15;;
41434;SDS011;27177;22.262;114.192;2022-12-18T09:00:22;5.35;;;2.22;;
41434;SDS011;27177;22.262;114.192;2022-12-18T09:02:49;6.35;;;2.17;;
41434;SDS011;27177;22.262;114.192;2022-12-18T09:05:16;4.28;;;2.22;;
41434;SDS011;27177;22.262;114.192;2022-12-18T09:07:43;8.77;;;2.30;;
41434;SDS011;27177;22.262;114.192;2022-12-18T09:10:09;3.15;;;2.03;;
41434;SDS011;27177;22.262;114.192;2022-12-18T09:12:37;6.82;;;2.35;;
41434;SDS011;27177;22.262;114.192;2022-12-18T09:15:04;8.60;;;2.10;;
41434;SDS011;27177;22.262;114.192;2022-12-18T09:17:31;4.55;;;2.45;;
41434;SDS011;27177;22.262;114.192;2022-12-18T09:19:58;4.28;;;1.95;;
41434;SDS011;27177;22.262;114.192;2022-12-18T09:22:25;8.20;;;2.00;;
41434;SDS011;27177;22.262;114.192;2022-12-18T09:24:51;5.30;;;2.10;;
41434;SDS011;27177;22.262;114.192;2022-12-18T09:27:19;12.77;;;2.70;;
41434;SDS011;27177;22.262;114.192;2022-12-18T09:29:46;4.95;;;2.10;;
41434;SDS011;27177;22.262;114.192;2022-12-18T09:32:13;6.90;;;2.20;;
41434;SDS011;27177;22.262;114.192;2022-12-18T09:34:39;4.28;;;2.30;;
41434;SDS011;27177;22.262;114.192;2022-12-18T09:37:06;8.48;;;2.22;;
41434;SDS011;27177;22.262;114.192;2022-12-18T09:39:33;6.80;;;2.20;;
41434;SDS011;27177;22.262;114.192;2022-12-18T09:42:01;7.20;;;2.20;;
41434;SDS011;27177;22.262;114.192;2022-12-18T09:53:24;5.13;;;2.20;;
41434;SDS011;27177;22.262;114.192;2022-12-18T10:01:17;4.80;;;1.98;;
41434;SDS011;27177;22.262;114.192;2022-12-18T10:03:49;4.63;;;2.08;;
41434;SDS011;27177;22.262;114.192;2022-12-18T10:34:54;6.18;;;2.15;;
41434;SDS011;27177;22.262;114.192;2022-12-18T10:47:49;5.60;;;2.22;;
41434;SDS011;27177;22.262;114.192;2022-12-18T10:50:26;10.48;;;2.78;;
41434;SDS011;27177;22.262;114.192;2022-12-18T10:53:01;4.50;;;2.22;;
41434;SDS011;27177;22.262;114.192;2022-12-18T10:55:34;5.47;;;2.40;;
41434;SDS011;27177;22.262;114.192;2022-12-18T11:13:58;4.43;;;2.25;;
41434;SDS011;27177;22.262;114.192;2022-12-18T11:21:54;2.60;;;1.70;;
41434;SDS011;27177;22.262;114.192;2022-12-18T11:37:34;4.70;;;1.92;;
41434;SDS011;27177;22.262;114.192;2022-12-18T11:45:30;4.03;;;2.05;;
41434;SDS011;27177;22.262;114.192;2022-12-18T12:06:36;4.32;;;1.73;;
41434;SDS011;27177;22.262;114.192;2022-12-18T12:12:02;5.40;;;1.98;;
41434;SDS011;27177;22.262;114.192;2022-12-18T12:23:39;4.05;;;2.10;;
41434;SDS011;27177;22.262;114.192;2022-12-18T12:34:32;6.20;;;2.00;;
41434;SDS011;27177;22.262;114.192;2022-12-18T12:37:08;3.65;;;1.67;;
41434;SDS011;27177;22.262;114.192;2022-12-18T12:39:55;3.47;;;1.95;;
41434;SDS011;27177;22.262;114.192;2022-12-18T12:45:39;6.72;;;1.92;;
41434;SDS011;27177;22.262;114.192;2022-12-18T12:50:51;6.07;;;2.13;;
41434;SDS011;27177;22.262;114.192;2022-12-18T12:53:52;3.95;;;1.60;;
41434;SDS011;27177;22.262;114.192;2022-12-18T12:56:14;5.32;;;1.98;;
41434;SDS011;27177;22.262;114.192;2022-12-18T13:03:56;3.80;;;2.00;;
41434;SDS011;27177;22.262;114.192;2022-12-18T13:06:33;3.78;;;1.77;;
41434;SDS011;27177;22.262;114.192;2022-12-18T13:09:20;6.50;;;2.10;;
41434;SDS011;27177;22.262;114.192;2022-12-18T13:11:57;4.97;;;2.10;;
41434;SDS011;27177;22.262;114.192;2022-12-18T13:14:47;4.97;;;1.90;;
41434;SDS011;27177;22.262;114.192;2022-12-18T13:19:42;4.68;;;2.10;;
41434;SDS011;27177;22.262;114.192;2022-12-18T13:22:22;7.07;;;1.90;;
41434;SDS011;27177;22.262;114.192;2022-12-18T13:24:53;4.18;;;1.98;;
41434;SDS011;27177;22.262;114.192;2022-12-18T13:41:01;4.15;;;1.60;;
41434;SDS011;27177;22.262;114.192;2022-12-18T13:43:52;6.75;;;2.15;;
41434;SDS011;27177;22.262;114.192;2022-12-18T13:46:59;9.02;;;2.88;;
41434;SDS011;27177;22.262;114.192;2022-12-18T13:52:37;6.32;;;2.08;;
41434;SDS011;27177;22.262;114.192;2022-12-18T13:55:02;6.03;;;1.92;;
41434;SDS011;27177;22.262;114.192;2022-12-18T13:57:34;4.80;;;2.20;;
41434;SDS011;27177;22.262;114.192;2022-12-18T14:00:40;3.95;;;1.67;;
41434;SDS011;27177;22.262;114.192;2022-12-18T14:02:59;7.53;;;2.20;;
41434;SDS011;27177;22.262;114.192;2022-12-18T14:05:33;4.97;;;2.20;;
41434;SDS011;27177;22.262;114.192;2022-12-18T14:08:07;4.95;;;1.95;;
41434;SDS011;27177;22.262;114.192;2022-12-18T14:10:40;4.15;;;1.90;;
41434;SDS011;27177;22.262;114.192;2022-12-18T14:15:40;4.10;;;1.98;;
41434;SDS011;27177;22.262;114.192;2022-12-18T14:18:19;6.78;;;2.00;;
41434;SDS011;27177;22.262;114.192;2022-12-18T14:23:51;6.60;;;2.00;;
41434;SDS011;27177;22.262;114.192;2022-12-18T14:26:22;9.32;;;1.98;;
41434;SDS011;27177;22.262;114.192;2022-12-18T14:28:53;4.05;;;1.95;;
41434;SDS011;27177;22.262;114.192;2022-12-18T14:31:22;3.83;;;2.10;;
41434;SDS011;27177;22.262;114.192;2022-12-18T14:33:52;5.53;;;2.53;;
41434;SDS011;27177;22.262;114.192;2022-12-18T14:36:24;5.05;;;1.98;;
41434;SDS011;27177;22.262;114.192;2022-12-18T14:38:52;6.63;;;2.00;;
41434;SDS011;27177;22.262;114.192;2022-12-18T14:41:25;6.32;;;1.85;;
41434;SDS011;27177;22.262;114.192;2022-12-18T14:43:56;7.10;;;2.20;;
41434;SDS011;27177;22.262;114.192;2022-12-18T14:46:42;4.15;;;1.83;;
41434;SDS011;27177;22.262;114.192;2022-12-18T14:52:00;5.30;;;1.98;;
41434;SDS011;27177;22.262;114.192;2022-12-18T14:54:29;4.22;;;1.80;;
41434;SDS011;27177;22.262;114.192;2022-12-18T14:59:31;4.45;;;1.92;;
41434;SDS011;27177;22.262;114.192;2022-12-18T15:04:47;7.57;;;2.08;;
41434;SDS011;27177;22.262;114.192;2022-12-18T15:07:24;6.07;;;1.80;;
41434;SDS011;27177;22.262;114.192;2022-12-18T15:10:52;3.78;;;1.90;;
41434;SDS011;27177;22.262;114.192;2022-12-18T15:20:40;6.30;;;2.50;;
41434;SDS011;27177;22.262;114.192;2022-12-18T15:23:25;4.43;;;1.77;;
41434;SDS011;27177;22.262;114.192;2022-12-18T15:26:03;4.63;;;1.80;;
41434;SDS011;27177;22.262;114.192;2022-12-18T15:28:39;4.68;;;2.15;;
41434;SDS011;27177;22.262;114.192;2022-12-18T15:33:40;4.65;;;1.67;;
41434;SDS011;27177;22.262;114.192;2022-12-18T15:36:20;5.13;;;2.03;;
41434;SDS011;27177;22.262;114.192;2022-12-18T15:43:59;5.53;;;1.90;;
41434;SDS011;27177;22.262;114.192;2022-12-18T15:46:26;2.90;;;1.83;;
41434;SDS011;27177;22.262;114.192;2022-12-18T15:48:54;3.70;;;1.80;;
41434;SDS011;27177;22.262;114.192;2022-12-18T15:51:37;5.03;;;1.70;;
41434;SDS011;27177;22.262;114.192;2022-12-18T15:54:05;7.25;;;1.80;;
41434;SDS011;27177;22.262;114.192;2022-12-18T15:56:40;5.53;;;1.88;;
41434;SDS011;27177;22.262;114.192;2022-12-18T15:59:26;5.78;;;3.10;;
41434;SDS011;27177;22.262;114.192;2022-12-18T16:01:53;5.53;;;2.10;;
41434;SDS011;27177;22.262;114.192;2022-12-18T16:04:20;5.03;;;1.80;;
41434;SDS011;27177;22.262;114.192;2022-12-18T16:06:48;3.13;;;1.70;;
41434;SDS011;27177;22.262;114.192;2022-12-18T16:09:19;3.90;;;1.88;;
41434;SDS011;27177;22.262;114.192;2022-12-18T16:11:45;4.95;;;2.00;;
41434;SDS011;27177;22.262;114.192;2022-12-18T16:14:17;3.10;;;1.52;;
41434;SDS011;27177;22.262;114.192;2022-12-18T16:16:57;3.00;;;1.52;;
41434;SDS011;27177;22.262;114.192;2022-12-18T16:19:37;4.63;;;2.17;;
41434;SDS011;27177;22.262;114.192;2022-12-18T16:22:05;3.72;;;1.60;;
41434;SDS011;27177;22.262;114.192;2022-12-18T16:24:48;4.45;;;1.80;;
41434;SDS011;27177;22.262;114.192;2022-12-18T16:27:19;3.60;;;1.63;;
41434;SDS011;27177;22.262;114.192;2022-12-18T16:32:22;5.20;;;2.35;;
41434;SDS011;27177;22.262;114.192;2022-12-18T16:34:49;3.63;;;1.70;;
41434;SDS011;27177;22.262;114.192;2022-12-18T16:37:15;4.10;;;1.77;;
41434;SDS011;27177;22.262;114.192;2022-12-18T16:39:43;4.78;;;2.35;;
41434;SDS011;27177;22.262;114.192;2022-12-18T16:42:11;6.93;;;1.77;;
41434;SDS011;27177;22.262;114.192;2022-12-18T16:44:40;6.00;;;1.67;;
41434;SDS011;27177;22.262;114.192;2022-12-18T16:47:07;6.80;;;2.10;;
41434;SDS011;27177;22.262;114.192;2022-12-18T16:49:34;7.55;;;1.98;;
41434;SDS011;27177;22.262;114.192;2022-12-18T16:52:02;6.97;;;2.13;;
41434;SDS011;27177;22.262;114.192;2022-12-18T16:54:29;8.68;;;1.95;;
41434;SDS011;27177;22.262;114.192;2022-12-18T16:56:57;4.38;;;1.75;;
41434;SDS011;27177;22.262;114.192;2022-12-18T16:59:25;8.60;;;2.00;;
41434;SDS011;27177;22.262;114.192;2022-12-18T17:01:53;3.63;;;1.73;;
41434;SDS011;27177;22.262;114.192;2022-12-18T17:04:21;4.15;;;2.13;;
41434;SDS011;27177;22.262;114.192;2022-12-18T17:06:48;4.65;;;2.22;;
41434;SDS011;27177;22.262;114.192;2022-12-18T17:09:18;4.38;;;1.73;;
41434;SDS011;27177;22.262;114.192;2022-12-18T17:11:50;4.20;;;1.55;;
41434;SDS011;27177;22.262;114.192;2022-12-18T17:14:19;4.85;;;1.85;;
41434;SDS011;27177;22.262;114.192;2022-12-18T17:16:46;5.00;;;1.95;;
41434;SDS011;27177;22.262;114.192;2022-12-18T17:19:14;5.90;;;1.55;;
41434;SDS011;27177;22.262;114.192;2022-12-18T17:21:42;4.45;;;1.83;;
41434;SDS011;27177;22.262;114.192;2022-12-18T17:24:10;5.47;;;1.80;;
41434;SDS011;27177;22.262;114.192;2022-12-18T17:26:36;4.20;;;1.88;;
41434;SDS011;27177;22.262;114.192;2022-12-18T17:29:03;5.65;;;1.85;;
41434;SDS011;27177;22.262;114.192;2022-12-18T17:31:30;8.13;;;2.05;;
41434;SDS011;27177;22.262;114.192;2022-12-18T17:33:58;3.33;;;1.80;;
41434;SDS011;27177;22.262;114.192;2022-12-18T17:36:27;5.25;;;2.03;;
41434;SDS011;27177;22.262;114.192;2022-12-18T17:38:57;3.85;;;1.77;;
41434;SDS011;27177;22.262;114.192;2022-12-18T17:41:26;3.90;;;1.80;;
41434;SDS011;27177;22.262;114.192;2022-12-18T17:43:54;7.45;;;1.80;;
41434;SDS011;27177;22.262;114.192;2022-12-18T17:46:22;6.75;;;1.80;;
41434;SDS011;27177;22.262;114.192;2022-12-18T17:48:50;5.00;;;1.92;;
41434;SDS011;27177;22.262;114.192;2022-12-18T17:51:19;8.02;;;2.80;;
41434;SDS011;27177;22.262;114.192;2022-12-18T17:53:46;6.85;;;2.10;;
41434;SDS011;27177;22.262;114.192;2022-12-18T17:56:14;5.05;;;1.98;;
41434;SDS011;27177;22.262;114.192;2022-12-18T17:58:42;6.57;;;1.90;;
41434;SDS011;27177;22.262;114.192;2022-12-18T18:01:11;3.55;;;1.80;;
41434;SDS011;27177;22.262;114.192;2022-12-18T18:03:45;5.82;;;1.77;;
41434;SDS011;27177;22.262;114.192;2022-12-18T18:06:13;4.57;;;2.08;;
41434;SDS011;27177;22.262;114.192;2022-12-18T18:08:42;6.53;;;2.75;;
41434;SDS011;27177;22.262;114.192;2022-12-18T18:11:11;4.63;;;1.60;;
41434;SDS011;27177;22.262;114.192;2022-12-18T18:14:01;4.82;;;1.98;;
41434;SDS011;27177;22.262;114.192;2022-12-18T18:16:30;5.70;;;2.05;;
41434;SDS011;27177;22.262;114.192;2022-12-18T18:19:04;4.65;;;2.03;;
41434;SDS011;27177;22.262;114.192;2022-12-18T18:21:41;9.48;;;2.00;;
41434;SDS011;27177;22.262;114.192;2022-12-18T18:24:11;7.25;;;2.03;;
41434;SDS011;27177;22.262;114.192;2022-12-18T18:26:43;5.97;;;2.03;;
41434;SDS011;27177;22.262;114.192;2022-12-18T18:29:15;4.72;;;1.77;;
41434;SDS011;27177;22.262;114.192;2022-12-18T18:31:47;5.75;;;2.22;;